createdAt,value
2022-09-25T00:00:43.675Z,12.54
2022-09-25T00:03:12.463Z,12.66
2022-09-25T00:05:40.408Z,12.66
2022-09-25T00:08:07.752Z,12.51
2022-09-25T00:10:34.585Z,12.54
2022-09-25T00:13:01.067Z,12.65
2022-09-25T00:15:27.510Z,12.69
2022-09-25T00:17:53.977Z,12.64
2022-09-25T00:20:26.618Z,12.64
2022-09-25T00:22:53.679Z,12.63
2022-09-25T00:25:21.034Z,12.48
2022-09-25T00:27:50.240Z,12.41
2022-09-25T00:30:16.885Z,12.39
2022-09-25T00:32:43.358Z,12.26
2022-09-25T00:35:09.969Z,12.45
2022-09-25T00:37:37.107Z,12.42
2022-09-25T00:40:05.143Z,12.38
2022-09-25T00:42:33.052Z,12.44
2022-09-25T00:45:01.508Z,12.45
2022-09-25T00:47:38.986Z,12.42
2022-09-25T00:50:25.101Z,12.26
2022-09-25T00:52:54.489Z,12.36
2022-09-25T00:55:23.727Z,12.32
2022-09-25T00:57:54.014Z,12.33
2022-09-25T01:00:20.514Z,12.27
2022-09-25T01:02:55.288Z,12.33
2022-09-25T01:05:28.092Z,12.41
2022-09-25T01:07:57.361Z,12.50
2022-09-25T01:10:24.181Z,12.52
2022-09-25T01:12:52.166Z,12.46
2022-09-25T01:15:23.481Z,12.47
2022-09-25T01:18:03.491Z,12.43
2022-09-25T01:20:48.891Z,12.29
2022-09-25T01:23:21.351Z,12.29
2022-09-25T01:26:12.460Z,12.21
2022-09-25T01:29:05.954Z,12.27
2022-09-25T01:31:47.311Z,12.26
2022-09-25T01:34:20.418Z,12.26
2022-09-25T01:37:02.110Z,12.20
2022-09-25T01:39:35.489Z,12.15
2022-09-25T01:42:14.483Z,12.19
2022-09-25T01:44:49.783Z,12.16
2022-09-25T01:47:23.917Z,12.14
2022-09-25T01:50:00.943Z,12.06
2022-09-25T01:52:35.271Z,12.11
2022-09-25T01:55:36.040Z,12.21
2022-09-25T01:58:14.643Z,12.17
2022-09-25T02:00:45.563Z,12.14
2022-09-25T02:03:18.075Z,12.17
2022-09-25T02:05:49.377Z,12.25
2022-09-25T02:08:25.231Z,12.33
2022-09-25T02:10:57.289Z,12.37
2022-09-25T02:13:29.301Z,12.22
2022-09-25T02:16:02.081Z,12.32
2022-09-25T02:18:48.117Z,12.18
2022-09-25T02:21:20.969Z,12.29
2022-09-25T02:24:05.889Z,12.29
2022-09-25T02:26:34.466Z,12.33
2022-09-25T02:29:02.441Z,12.40
2022-09-25T02:31:35.718Z,12.41
2022-09-25T02:34:03.800Z,12.46
2022-09-25T02:36:32.358Z,12.32
2022-09-25T02:38:59.243Z,12.14
2022-09-25T02:41:40.803Z,12.00
2022-09-25T02:44:10.105Z,11.93
2022-09-25T02:46:56.104Z,11.77
2022-09-25T02:49:48.855Z,11.94
2022-09-25T02:52:54.224Z,11.88
2022-09-25T02:55:52.905Z,11.96
2022-09-25T02:58:50.882Z,11.95
2022-09-25T03:01:20.425Z,11.88
2022-09-25T03:03:49.939Z,11.67
2022-09-25T03:06:17.419Z,11.75
2022-09-25T03:08:49.261Z,11.76
2022-09-25T03:11:18.220Z,11.80
2022-09-25T03:13:44.717Z,11.81
2022-09-25T03:16:26.092Z,11.81
2022-09-25T03:18:52.618Z,11.96
2022-09-25T03:21:19.075Z,11.99
2022-09-25T03:23:45.507Z,12.05
2022-09-25T03:26:11.957Z,12.05
2022-09-25T03:28:38.538Z,12.03
2022-09-25T03:31:11.518Z,12.08
2022-09-25T03:33:40.337Z,12.06
2022-09-25T03:36:06.949Z,12.00
2022-09-25T03:38:34.021Z,12.05
2022-09-25T03:41:00.530Z,11.99
2022-09-25T03:43:27.021Z,12.12
2022-09-25T03:45:53.601Z,12.20
2022-09-25T03:48:20.097Z,12.20
2022-09-25T03:50:46.585Z,12.21
2022-09-25T03:53:13.137Z,12.18
2022-09-25T03:55:39.614Z,12.21
2022-09-25T03:58:06.030Z,12.24
2022-09-25T04:00:32.440Z,12.15
2022-09-25T04:02:59.394Z,12.02
2022-09-25T04:05:25.925Z,12.01
2022-09-25T04:07:52.338Z,11.95
2022-09-25T04:10:18.747Z,12.12
2022-09-25T04:12:45.146Z,12.10
2022-09-25T04:15:11.555Z,12.10
2022-09-25T04:17:37.953Z,12.16
2022-09-25T04:20:04.638Z,12.17
2022-09-25T04:22:31.029Z,12.03
2022-09-25T04:24:58.327Z,12.13
2022-09-25T04:27:24.956Z,12.01
2022-09-25T04:29:51.379Z,12.05
2022-09-25T04:32:36.134Z,12.02
2022-09-25T04:35:02.944Z,11.97
2022-09-25T04:37:29.444Z,12.01
2022-09-25T04:39:57.158Z,12.16
2022-09-25T04:42:24.755Z,12.20
2022-09-25T04:44:55.651Z,12.25
2022-09-25T04:47:23.185Z,12.22
2022-09-25T04:49:49.750Z,12.26
2022-09-25T04:52:17.762Z,12.34
2022-09-25T04:54:44.295Z,12.31
2022-09-25T04:57:27.385Z,12.29
2022-09-25T05:00:02.148Z,12.11
2022-09-25T05:02:28.889Z,12.16
2022-09-25T05:04:55.436Z,12.20
2022-09-25T05:07:21.878Z,12.08
2022-09-25T05:09:48.364Z,12.22
2022-09-25T05:12:15.697Z,12.18
2022-09-25T05:14:42.644Z,12.17
2022-09-25T05:17:11.238Z,12.07
2022-09-25T05:19:38.852Z,12.21
2022-09-25T05:22:05.418Z,12.22
2022-09-25T05:24:31.933Z,12.29
2022-09-25T05:26:58.914Z,12.34
2022-09-25T05:29:25.457Z,12.14
2022-09-25T05:31:51.974Z,12.19
2022-09-25T05:34:18.454Z,11.92
2022-09-25T05:36:44.929Z,11.89
2022-09-25T05:39:14.386Z,12.08
2022-09-25T05:41:41.196Z,12.12
2022-09-25T05:44:09.711Z,12.27
2022-09-25T05:46:37.071Z,12.31
2022-09-25T05:49:04.658Z,12.25
2022-09-25T05:51:32.521Z,12.33
2022-09-25T05:54:02.345Z,12.26
2022-09-25T05:56:29.636Z,12.29
2022-09-25T05:58:58.740Z,12.42
2022-09-25T06:01:26.152Z,12.44
2022-09-25T06:03:52.823Z,12.37
2022-09-25T06:06:22.544Z,12.36
2022-09-25T06:08:54.712Z,12.23
2022-09-25T06:11:22.296Z,12.29
2022-09-25T06:13:54.193Z,12.19
2022-09-25T06:16:21.245Z,12.30
2022-09-25T06:18:47.817Z,12.44
2022-09-25T06:21:14.388Z,12.37
2022-09-25T06:23:46.746Z,12.37
2022-09-25T06:26:14.093Z,12.32
2022-09-25T06:28:40.506Z,12.25
2022-09-25T06:31:07.352Z,12.38
2022-09-25T06:33:33.874Z,12.33
2022-09-25T06:36:00.838Z,12.59
2022-09-25T06:38:27.588Z,12.76
2022-09-25T06:40:57.238Z,12.94
2022-09-25T06:43:25.936Z,12.99
2022-09-25T06:45:52.492Z,12.97
2022-09-25T06:48:19.037Z,12.85
2022-09-25T06:50:47.446Z,12.75
2022-09-25T06:53:15.013Z,12.63
2022-09-25T06:55:41.577Z,12.66
2022-09-25T06:58:10.750Z,12.65
2022-09-25T07:00:37.172Z,12.67
2022-09-25T07:03:22.413Z,12.63
2022-09-25T07:05:49.380Z,12.69
2022-09-25T07:08:18.543Z,12.65
2022-09-25T07:10:52.653Z,12.65
2022-09-25T07:13:24.576Z,12.78
2022-09-25T07:15:55.640Z,12.87
2022-09-25T07:18:23.808Z,12.75
2022-09-25T07:20:51.475Z,12.84
2022-09-25T07:23:19.912Z,12.87
2022-09-25T07:25:47.488Z,12.85
2022-09-25T07:28:14.868Z,12.93
2022-09-25T07:30:42.325Z,13.10
2022-09-25T07:33:09.656Z,12.96
2022-09-25T07:35:37.446Z,13.06
2022-09-25T07:38:04.414Z,12.99
2022-09-25T07:40:35.247Z,13.02
2022-09-25T07:43:02.541Z,12.98
2022-09-25T07:45:29.501Z,13.00
2022-09-25T07:48:03.246Z,12.96
2022-09-25T07:50:31.898Z,13.00
2022-09-25T07:52:58.737Z,13.11
2022-09-25T07:55:25.380Z,13.23
2022-09-25T07:57:52.126Z,13.20
2022-09-25T08:00:18.778Z,13.23
2022-09-25T08:02:45.258Z,13.28
2022-09-25T08:05:11.784Z,13.32
2022-09-25T08:07:38.548Z,13.41
2022-09-25T08:10:05.634Z,13.45
2022-09-25T08:12:32.038Z,13.57
2022-09-25T08:14:58.445Z,13.63
2022-09-25T08:17:27.563Z,13.67
2022-09-25T08:19:54.248Z,13.74
2022-09-25T08:22:20.657Z,13.64
2022-09-25T08:24:47.184Z,13.65
2022-09-25T08:27:13.632Z,13.52
2022-09-25T08:29:40.904Z,13.52
2022-09-25T08:32:07.461Z,13.67
2022-09-25T08:34:41.046Z,13.86
2022-09-25T08:37:09.526Z,14.19
2022-09-25T08:39:36.088Z,14.39
2022-09-25T08:42:03.055Z,14.46
2022-09-25T08:44:48.957Z,14.52
2022-09-25T08:47:43.803Z,14.58
2022-09-25T08:50:14.853Z,14.63
2022-09-25T08:52:44.301Z,14.70
2022-09-25T08:55:50.280Z,14.84
2022-09-25T08:58:24.681Z,14.87
2022-09-25T09:00:57.547Z,14.95
2022-09-25T09:03:25.725Z,15.02
2022-09-25T09:06:00.092Z,15.09
2022-09-25T09:08:29.711Z,15.11
2022-09-25T09:11:37.846Z,15.11
2022-09-25T09:14:13.187Z,15.13
2022-09-25T09:16:49.780Z,15.06
2022-09-25T09:19:16.257Z,15.11
2022-09-25T09:22:02.166Z,14.99
2022-09-25T09:25:02.618Z,14.90
2022-09-25T09:27:43.824Z,14.81
2022-09-25T09:30:10.350Z,14.82
2022-09-25T09:32:48.355Z,14.68
2022-09-25T09:35:24.243Z,14.79
2022-09-25T09:38:05.018Z,14.98
2022-09-25T09:40:49.346Z,15.01
2022-09-25T09:43:44.015Z,15.16
2022-09-25T09:46:49.613Z,15.04
2022-09-25T09:49:51.068Z,15.08
2022-09-25T09:52:21.946Z,15.27
2022-09-25T09:54:53.815Z,15.47
2022-09-25T09:57:26.644Z,16.18
2022-09-25T10:00:05.839Z,16.49
2022-09-25T10:02:52.773Z,18.28
2022-09-25T10:05:32.641Z,19.62
2022-09-25T10:07:59.390Z,19.51
2022-09-25T10:10:35.678Z,18.69
2022-09-25T10:13:06.676Z,17.99
2022-09-25T10:15:38.865Z,17.31
2022-09-25T10:18:06.678Z,16.40
2022-09-25T10:20:48.084Z,16.28
2022-09-25T10:23:40.559Z,15.69
2022-09-25T10:26:39.902Z,15.94
2022-09-25T10:29:21.374Z,15.90
2022-09-25T10:31:48.569Z,15.64
2022-09-25T10:34:22.163Z,15.71
2022-09-25T10:36:51.637Z,16.12
2022-09-25T10:39:45.071Z,15.97
2022-09-25T10:42:33.020Z,16.62
2022-09-25T10:44:59.470Z,16.88
2022-09-25T10:47:49.813Z,17.18
2022-09-25T10:50:21.510Z,17.76
2022-09-25T10:52:59.139Z,17.86
2022-09-25T10:55:28.775Z,19.36
2022-09-25T10:58:10.456Z,19.26
2022-09-25T11:00:44.007Z,18.88
2022-09-25T11:03:21.755Z,18.80
2022-09-25T11:06:03.847Z,19.03
2022-09-25T11:08:34.394Z,19.02
2022-09-25T11:11:03.047Z,18.90
2022-09-25T11:13:40.331Z,19.64
2022-09-25T11:16:10.258Z,20.50
2022-09-25T11:19:05.931Z,20.63
2022-09-25T11:21:38.890Z,21.25
2022-09-25T11:24:49.233Z,22.47
2022-09-25T11:27:26.414Z,23.99
2022-09-25T11:30:14.272Z,23.76
2022-09-25T11:32:53.059Z,24.08
2022-09-25T11:35:34.628Z,26.10
2022-09-25T11:38:43.655Z,22.88
2022-09-25T11:41:35.195Z,23.45
2022-09-25T11:44:27.578Z,25.61
2022-09-25T11:47:05.965Z,28.51
2022-09-25T11:49:38.629Z,27.86
2022-09-25T11:52:37.411Z,25.50
2022-09-25T11:55:27.699Z,22.91
2022-09-25T11:58:03.399Z,22.16
2022-09-25T12:01:04.453Z,21.47
2022-09-25T12:03:46.598Z,21.36
2022-09-25T12:06:22.345Z,20.62
2022-09-25T12:08:55.664Z,19.91
2022-09-25T12:11:46.616Z,20.00
2022-09-25T12:14:17.230Z,20.33
2022-09-25T12:17:01.113Z,20.41
2022-09-25T12:19:52.180Z,19.84
2022-09-25T12:22:43.672Z,21.79
2022-09-25T12:25:22.014Z,21.80
2022-09-25T12:27:53.291Z,24.66
2022-09-25T12:30:24.543Z,23.93
2022-09-25T12:33:06.325Z,22.40
2022-09-25T12:35:53.895Z,22.57
2022-09-25T12:38:30.180Z,22.20
2022-09-25T12:41:09.465Z,21.32
2022-09-25T12:43:52.010Z,20.60
2022-09-25T12:46:22.416Z,20.23
2022-09-25T12:48:54.560Z,21.07
2022-09-25T12:51:38.027Z,21.11
2022-09-25T12:54:32.257Z,21.53
2022-09-25T12:57:49.875Z,22.06
2022-09-25T13:00:25.835Z,22.56
2022-09-25T13:03:08.562Z,22.27
2022-09-25T13:05:52.182Z,20.97
2022-09-25T13:08:34.276Z,21.58
2022-09-25T13:11:07.571Z,21.45
2022-09-25T13:13:43.326Z,20.73
2022-09-25T13:16:09.859Z,20.96
2022-09-25T13:18:36.459Z,21.13
2022-09-25T13:21:29.668Z,21.26
2022-09-25T13:23:57.042Z,21.67
2022-09-25T13:26:26.840Z,21.65
2022-09-25T13:29:01.585Z,21.49
2022-09-25T13:31:34.453Z,21.45
2022-09-25T13:34:00.840Z,21.76
2022-09-25T13:36:45.800Z,21.75
2022-09-25T13:39:49.502Z,21.02
2022-09-25T13:42:24.379Z,20.09
2022-09-25T13:45:07.819Z,19.75
2022-09-25T13:47:38.186Z,20.39
2022-09-25T13:50:10.624Z,20.11
2022-09-25T13:52:36.979Z,20.11
2022-09-25T13:55:20.153Z,20.42
2022-09-25T13:57:58.918Z,20.73
2022-09-25T14:00:28.014Z,20.44
2022-09-25T14:03:01.079Z,20.62
2022-09-25T14:05:36.229Z,20.42
2022-09-25T14:08:14.586Z,19.88
2022-09-25T14:10:47.546Z,19.57
2022-09-25T14:13:15.978Z,19.13
2022-09-25T14:15:45.004Z,19.00
2022-09-25T14:18:19.402Z,18.87
2022-09-25T14:20:50.158Z,18.85
2022-09-25T14:23:29.837Z,18.86
2022-09-25T14:25:58.422Z,18.65
2022-09-25T14:28:30.547Z,18.42
2022-09-25T14:31:11.425Z,18.32
2022-09-25T14:34:02.955Z,18.40
2022-09-25T14:36:37.883Z,18.56
2022-09-25T14:39:20.174Z,18.58
2022-09-25T14:42:06.830Z,18.55
2022-09-25T14:45:13.957Z,18.13
2022-09-25T14:47:46.329Z,17.89
2022-09-25T14:50:23.950Z,17.85
2022-09-25T14:52:57.133Z,17.92
2022-09-25T14:55:25.546Z,18.10
2022-09-25T14:57:53.011Z,18.01
2022-09-25T15:00:24.302Z,17.86
2022-09-25T15:02:57.150Z,17.65
2022-09-25T15:05:26.709Z,17.55
2022-09-25T15:07:59.349Z,17.53
2022-09-25T15:10:38.530Z,17.43
2022-09-25T15:13:18.048Z,17.30
2022-09-25T15:16:12.479Z,17.45
2022-09-25T15:18:41.923Z,17.36
2022-09-25T15:21:21.497Z,17.26
2022-09-25T15:23:48.668Z,17.42
2022-09-25T15:26:18.608Z,17.52
2022-09-25T15:28:45.945Z,17.56
2022-09-25T15:31:12.900Z,17.60
2022-09-25T15:33:40.626Z,17.69
2022-09-25T15:36:17.047Z,17.74
2022-09-25T15:38:44.578Z,17.70
2022-09-25T15:41:15.747Z,17.68
2022-09-25T15:43:42.202Z,17.61
2022-09-25T15:46:08.935Z,17.57
2022-09-25T15:48:52.071Z,17.62
2022-09-25T15:51:25.232Z,17.67
2022-09-25T15:53:53.785Z,17.67
2022-09-25T15:56:27.504Z,17.73
2022-09-25T15:59:01.338Z,17.70
2022-09-25T16:01:49.359Z,17.67
2022-09-25T16:04:40.526Z,17.64
2022-09-25T16:07:23.994Z,17.57
2022-09-25T16:09:51.786Z,17.42
2022-09-25T16:12:20.618Z,17.33
2022-09-25T16:14:47.684Z,17.42
2022-09-25T16:17:37.534Z,17.32
2022-09-25T16:20:28.315Z,17.34
2022-09-25T16:22:57.571Z,17.11
2022-09-25T16:25:32.150Z,17.04
2022-09-25T16:28:16.029Z,17.02
2022-09-25T16:31:04.441Z,16.94
2022-09-25T16:33:34.973Z,16.82
2022-09-25T16:36:14.577Z,16.67
2022-09-25T16:39:02.770Z,16.60
2022-09-25T16:41:29.954Z,16.53
2022-09-25T16:44:39.794Z,16.48
2022-09-25T16:47:21.016Z,16.42
2022-09-25T16:49:49.387Z,16.49
2022-09-25T16:52:22.243Z,16.41
2022-09-25T16:54:56.917Z,16.37
2022-09-25T16:57:27.677Z,16.30
2022-09-25T16:59:54.181Z,16.30
2022-09-25T17:02:33.331Z,16.23
2022-09-25T17:05:02.516Z,16.17
2022-09-25T17:07:29.589Z,16.15
2022-09-25T17:09:56.214Z,16.23
2022-09-25T17:12:25.533Z,16.30
2022-09-25T17:14:52.720Z,16.27
2022-09-25T17:17:21.971Z,16.05
2022-09-25T17:19:50.324Z,15.90
2022-09-25T17:22:17.493Z,15.92
2022-09-25T17:24:44.229Z,15.96
2022-09-25T17:27:15.422Z,15.95
2022-09-25T17:29:42.558Z,16.04
2022-09-25T17:32:14.069Z,15.85
2022-09-25T17:34:41.534Z,15.85
2022-09-25T17:37:07.953Z,15.78
2022-09-25T17:39:34.440Z,15.67
2022-09-25T17:42:02.607Z,15.65
2022-09-25T17:44:29.158Z,15.58
2022-09-25T17:46:55.882Z,15.59
2022-09-25T17:49:23.376Z,15.69
2022-09-25T17:51:50.398Z,15.72
2022-09-25T17:54:17.295Z,15.66
2022-09-25T17:56:45.311Z,15.67
2022-09-25T17:59:14.523Z,15.55
2022-09-25T18:01:41.615Z,15.66
2022-09-25T18:04:22.023Z,15.73
2022-09-25T18:06:49.047Z,15.69
2022-09-25T18:09:15.755Z,15.70
2022-09-25T18:11:44.083Z,15.58
2022-09-25T18:14:12.731Z,15.60
2022-09-25T18:16:41.795Z,15.52
2022-09-25T18:19:50.672Z,15.42
2022-09-25T18:22:17.531Z,15.44
2022-09-25T18:24:45.030Z,15.48
2022-09-25T18:27:12.374Z,15.39
2022-09-25T18:29:38.832Z,15.40
2022-09-25T18:32:05.474Z,15.42
2022-09-25T18:34:31.903Z,15.36
2022-09-25T18:36:58.294Z,15.37
2022-09-25T18:39:24.800Z,15.31
2022-09-25T18:41:51.351Z,15.31
2022-09-25T18:44:19.415Z,15.38
2022-09-25T18:46:45.942Z,15.31
2022-09-25T18:49:12.605Z,15.36
2022-09-25T18:51:39.996Z,15.35
2022-09-25T18:54:06.492Z,15.37
2022-09-25T18:56:34.604Z,15.33
2022-09-25T18:59:04.355Z,15.38
2022-09-25T19:01:31.041Z,15.30
2022-09-25T19:03:57.634Z,15.25
2022-09-25T19:06:24.069Z,15.09
2022-09-25T19:08:53.262Z,15.06
2022-09-25T19:11:23.263Z,14.96
2022-09-25T19:13:49.922Z,14.95
2022-09-25T19:16:17.867Z,14.99
2022-09-25T19:18:45.152Z,15.00
2022-09-25T19:21:15.867Z,14.92
2022-09-25T19:23:43.354Z,14.90
2022-09-25T19:26:15.017Z,14.88
2022-09-25T19:28:41.949Z,14.88
2022-09-25T19:31:14.681Z,15.02
2022-09-25T19:33:41.283Z,14.97
2022-09-25T19:36:12.857Z,14.93
2022-09-25T19:38:40.273Z,15.00
2022-09-25T19:41:22.779Z,14.91
2022-09-25T19:43:49.596Z,14.83
2022-09-25T19:46:20.198Z,14.83
2022-09-25T19:48:48.474Z,14.84
2022-09-25T19:51:16.667Z,14.96
2022-09-25T19:53:43.775Z,14.99
2022-09-25T19:56:11.172Z,14.92
2022-09-25T19:58:40.830Z,14.93
2022-09-25T20:01:13.048Z,14.56
2022-09-25T20:03:40.173Z,14.59
2022-09-25T20:06:07.568Z,14.66
2022-09-25T20:08:34.238Z,14.69
2022-09-25T20:11:09.651Z,14.72
2022-09-25T20:13:36.235Z,14.87
2022-09-25T20:16:11.233Z,14.84
2022-09-25T20:18:37.882Z,14.82
2022-09-25T20:21:05.411Z,14.80
2022-09-25T20:23:31.956Z,14.82
2022-09-25T20:26:08.783Z,14.82
2022-09-25T20:28:37.253Z,14.73
2022-09-25T20:31:06.282Z,14.75
2022-09-25T20:33:35.528Z,14.75
2022-09-25T20:36:04.056Z,14.84
2022-09-25T20:38:30.600Z,14.78
2022-09-25T20:41:00.931Z,14.84
2022-09-25T20:43:28.089Z,14.79
2022-09-25T20:46:06.875Z,14.84
2022-09-25T20:48:38.306Z,14.80
2022-09-25T20:51:06.943Z,14.79
2022-09-25T20:53:33.622Z,14.74
2022-09-25T20:56:06.865Z,14.79
2022-09-25T20:58:33.657Z,14.76
2022-09-25T21:01:02.673Z,14.93
2022-09-25T21:03:34.092Z,14.91
2022-09-25T21:06:02.157Z,14.97
2022-09-25T21:08:32.567Z,14.94
2022-09-25T21:11:02.226Z,14.88
2022-09-25T21:13:30.032Z,14.74
2022-09-25T21:16:11.914Z,14.72
2022-09-25T21:18:40.925Z,14.75
2022-09-25T21:21:10.521Z,14.69
2022-09-25T21:23:37.485Z,14.68
2022-09-25T21:26:13.649Z,14.69
2022-09-25T21:28:42.607Z,14.68
2022-09-25T21:31:13.169Z,14.74
2022-09-25T21:33:40.341Z,14.73
2022-09-25T21:36:10.647Z,14.70
2022-09-25T21:38:37.303Z,14.52
2022-09-25T21:41:06.659Z,14.50
2022-09-25T21:43:35.000Z,14.55
2022-09-25T21:46:08.577Z,14.61
2022-09-25T21:48:38.121Z,14.41
2022-09-25T21:51:07.232Z,14.51
2022-09-25T21:53:34.649Z,14.59
2022-09-25T21:56:12.646Z,14.61
2022-09-25T21:58:39.684Z,14.52
2022-09-25T22:01:07.691Z,14.53
2022-09-25T22:03:35.426Z,14.50
2022-09-25T22:06:04.407Z,14.40
2022-09-25T22:08:31.421Z,14.45
2022-09-25T22:10:59.704Z,14.45
2022-09-25T22:13:28.304Z,14.44
2022-09-25T22:16:01.822Z,14.47
2022-09-25T22:18:29.331Z,14.35
2022-09-25T22:20:56.038Z,14.35
2022-09-25T22:23:23.952Z,14.29
2022-09-25T22:25:53.222Z,14.36
2022-09-25T22:28:20.853Z,14.20
2022-09-25T22:30:47.932Z,14.26
2022-09-25T22:33:14.373Z,14.13
2022-09-25T22:35:40.811Z,14.18
2022-09-25T22:38:07.273Z,14.13
2022-09-25T22:40:37.716Z,14.11
2022-09-25T22:43:05.462Z,14.24
2022-09-25T22:45:33.076Z,14.39
2022-09-25T22:48:00.197Z,14.30
2022-09-25T22:50:27.344Z,14.27
2022-09-25T22:52:58.355Z,14.16
2022-09-25T22:55:26.116Z,14.27
2022-09-25T22:57:52.625Z,14.15
2022-09-25T23:00:19.100Z,14.05
2022-09-25T23:02:45.590Z,14.23
2022-09-25T23:05:12.738Z,14.23
2022-09-25T23:07:39.226Z,14.08
2022-09-25T23:10:06.484Z,14.03
2022-09-25T23:12:32.953Z,14.05
2022-09-25T23:14:59.386Z,13.99
2022-09-25T23:17:26.494Z,14.10
2022-09-25T23:19:52.922Z,14.14
2022-09-25T23:22:19.992Z,13.99
2022-09-25T23:24:46.369Z,14.17
2022-09-25T23:27:12.792Z,14.26
2022-09-25T23:29:39.221Z,14.22
2022-09-25T23:32:08.060Z,14.23
2022-09-25T23:34:34.565Z,14.19
2022-09-25T23:37:00.982Z,14.27
2022-09-25T23:39:27.438Z,14.21
2022-09-25T23:41:53.891Z,14.30
2022-09-25T23:44:20.418Z,14.30
2022-09-25T23:46:46.871Z,14.21
2022-09-25T23:49:13.928Z,14.15
2022-09-25T23:51:40.638Z,14.08
2022-09-25T23:54:07.525Z,14.01
2022-09-25T23:56:35.212Z,14.04
2022-09-25T23:59:02.385Z,13.88
